sensor_id;sensor_type;location;lat;lon;timestamp;pressure;altitude;pressure_sealevel;temperature;humidity
58473;BME280;44775;51.564;5.460;2022-09-03T00:13:38;100850.19;;;14.82;57.42
58473;BME280;44775;51.564;5.460;2022-09-03T00:16:07;100851.59;;;14.78;57.34
58473;BME280;44775;51.564;5.460;2022-09-03T00:18:40;100848.44;;;14.75;57.88
58473;BME280;44775;51.564;5.460;2022-09-03T00:21:10;100853.22;;;14.73;57.89
58473;BME280;44775;51.564;5.460;2022-09-03T00:23:39;100856.50;;;14.68;58.05
58473;BME280;44775;51.564;5.460;2022-09-03T00:28:41;100856.88;;;14.65;58.15
58473;BME280;44775;51.564;5.460;2022-09-03T00:31:21;100855.59;;;14.61;58.05
58473;BME280;44775;51.564;5.460;2022-09-03T00:33:55;100847.28;;;14.56;58.45
58473;BME280;44775;51.564;5.460;2022-09-03T00:36:36;100859.47;;;14.52;58.36
58473;BME280;44775;51.564;5.460;2022-09-03T00:39:11;100853.56;;;14.41;59.18
58473;BME280;44775;51.564;5.460;2022-09-03T00:42:06;100853.56;;;14.41;58.69
58473;BME280;44775;51.564;5.460;2022-09-03T00:44:58;100856.63;;;14.38;58.41
58473;BME280;44775;51.564;5.460;2022-09-03T00:50:12;100855.34;;;14.34;59.45
58473;BME280;44775;51.564;5.460;2022-09-03T00:58:33;100856.50;;;14.25;59.87
58473;BME280;44775;51.564;5.460;2022-09-03T01:01:09;100850.25;;;14.18;60.01
58473;BME280;44775;51.564;5.460;2022-09-03T01:03:46;100848.31;;;14.12;60.52
58473;BME280;44775;51.564;5.460;2022-09-03T01:06:38;100852.03;;;14.11;60.01
58473;BME280;44775;51.564;5.460;2022-09-03T01:12:27;100849.72;;;14.08;60.75
58473;BME280;44775;51.564;5.460;2022-09-03T01:20:53;100840.88;;;13.92;60.84
58473;BME280;44775;51.564;5.460;2022-09-03T01:29:02;100849.44;;;13.81;61.85
58473;BME280;44775;51.564;5.460;2022-09-03T01:34:19;100850.94;;;13.84;61.88
58473;BME280;44775;51.564;5.460;2022-09-03T01:45:51;100849.44;;;13.81;60.72
58473;BME280;44775;51.564;5.460;2022-09-03T01:48:52;100849.88;;;13.85;61.14
58473;BME280;44775;51.564;5.460;2022-09-03T01:51:26;100848.47;;;13.89;61.58
58473;BME280;44775;51.564;5.460;2022-09-03T01:59:37;100850.06;;;13.83;61.45
58473;BME280;44775;51.564;5.460;2022-09-03T02:02:22;100852.13;;;13.81;61.50
58473;BME280;44775;51.564;5.460;2022-09-03T02:05:02;100849.16;;;13.76;61.58
58473;BME280;44775;51.564;5.460;2022-09-03T02:07:32;100844.81;;;13.75;61.98
58473;BME280;44775;51.564;5.460;2022-09-03T02:10:06;100840.47;;;13.74;61.87
58473;BME280;44775;51.564;5.460;2022-09-03T02:12:33;100839.53;;;13.82;61.61
58473;BME280;44775;51.564;5.460;2022-09-03T02:15:04;100842.00;;;13.83;61.45
58473;BME280;44775;51.564;5.460;2022-09-03T02:17:31;100844.06;;;13.81;61.46
58473;BME280;44775;51.564;5.460;2022-09-03T02:20:03;100842.78;;;13.77;61.54
58473;BME280;44775;51.564;5.460;2022-09-03T02:22:29;100843.63;;;13.78;61.50
58473;BME280;44775;51.564;5.460;2022-09-03T02:24:56;100841.31;;;13.75;61.54
58473;BME280;44775;51.564;5.460;2022-09-03T02:27:21;100841.03;;;13.69;61.74
58473;BME280;44775;51.564;5.460;2022-09-03T02:29:47;100841.59;;;13.65;61.85
58473;BME280;44775;51.564;5.460;2022-09-03T02:32:12;100819.97;;;13.52;62.01
58473;BME280;44775;51.564;5.460;2022-09-03T02:34:41;100835.72;;;13.55;62.48
58473;BME280;44775;51.564;5.460;2022-09-03T02:37:15;100835.88;;;13.53;62.14
58473;BME280;44775;51.564;5.460;2022-09-03T02:39:42;100837.94;;;13.51;62.59
58473;BME280;44775;51.564;5.460;2022-09-03T02:42:10;100839.50;;;13.45;62.61
58473;BME280;44775;51.564;5.460;2022-09-03T02:44:40;100838.22;;;13.41;62.20
58473;BME280;44775;51.564;5.460;2022-09-03T02:47:08;100833.22;;;13.38;62.61
58473;BME280;44775;51.564;5.460;2022-09-03T02:49:34;100836.50;;;13.34;62.86
58473;BME280;44775;51.564;5.460;2022-09-03T02:52:05;100834.81;;;13.33;63.01
58473;BME280;44775;51.564;5.460;2022-09-03T02:54:36;100837.03;;;13.29;63.14
58473;BME280;44775;51.564;5.460;2022-09-03T02:57:08;100837.31;;;13.34;63.29
58473;BME280;44775;51.564;5.460;2022-09-03T02:59:35;100839.16;;;13.34;63.27
58473;BME280;44775;51.564;5.460;2022-09-03T03:02:01;100840.38;;;13.31;63.27
58473;BME280;44775;51.564;5.460;2022-09-03T03:04:29;100833.16;;;13.32;63.18
58473;BME280;44775;51.564;5.460;2022-09-03T03:06:54;100826.66;;;13.41;62.94
58473;BME280;44775;51.564;5.460;2022-09-03T03:09:20;100834.25;;;13.37;62.84
58473;BME280;44775;51.564;5.460;2022-09-03T03:11:45;100835.66;;;13.33;62.95
58473;BME280;44775;51.564;5.460;2022-09-03T03:14:14;100840.56;;;13.30;63.18
58473;BME280;44775;51.564;5.460;2022-09-03T03:16:39;100837.75;;;13.23;63.06
58473;BME280;44775;51.564;5.460;2022-09-03T03:19:05;100834.13;;;13.16;63.44
58473;BME280;44775;51.564;5.460;2022-09-03T03:21:30;100828.59;;;13.17;63.47
58473;BME280;44775;51.564;5.460;2022-09-03T03:23:55;100827.78;;;13.17;63.58
58473;BME280;44775;51.564;5.460;2022-09-03T03:26:21;100828.13;;;13.14;63.85
58473;BME280;44775;51.564;5.460;2022-09-03T03:28:49;100829.16;;;13.13;63.77
58473;BME280;44775;51.564;5.460;2022-09-03T03:31:17;100833.50;;;13.14;63.77
58473;BME280;44775;51.564;5.460;2022-09-03T03:33:43;100839.81;;;13.06;63.76
58473;BME280;44775;51.564;5.460;2022-09-03T03:36:11;100844.06;;;13.00;64.06
58473;BME280;44775;51.564;5.460;2022-09-03T03:38:37;100842.66;;;13.05;64.22
58473;BME280;44775;51.564;5.460;2022-09-03T03:41:17;100844.06;;;13.00;64.04
58473;BME280;44775;51.564;5.460;2022-09-03T03:43:44;100837.19;;;12.98;64.42
58473;BME280;44775;51.564;5.460;2022-09-03T03:46:09;100834.06;;;12.94;64.50
58473;BME280;44775;51.564;5.460;2022-09-03T03:48:36;100835.44;;;12.90;64.57
58473;BME280;44775;51.564;5.460;2022-09-03T03:51:06;100836.28;;;12.91;64.85
58473;BME280;44775;51.564;5.460;2022-09-03T03:53:33;100837.09;;;12.91;64.79
58473;BME280;44775;51.564;5.460;2022-09-03T03:56:01;100827.19;;;12.92;64.83
58473;BME280;44775;51.564;5.460;2022-09-03T03:58:28;100831.38;;;12.94;64.66
58473;BME280;44775;51.564;5.460;2022-09-03T04:00:54;100834.34;;;12.99;64.64
58473;BME280;44775;51.564;5.460;2022-09-03T04:03:19;100833.94;;;13.03;64.67
58473;BME280;44775;51.564;5.460;2022-09-03T04:05:55;100831.25;;;13.03;64.41
58473;BME280;44775;51.564;5.460;2022-09-03T04:08:21;100821.41;;;13.03;64.36
58473;BME280;44775;51.564;5.460;2022-09-03T04:10:47;100819.63;;;13.10;64.11
58473;BME280;44775;51.564;5.460;2022-09-03T04:13:13;100832.84;;;13.12;63.96
58473;BME280;44775;51.564;5.460;2022-09-03T04:15:39;100830.81;;;13.14;63.86
58473;BME280;44775;51.564;5.460;2022-09-03T04:18:05;100832.84;;;13.12;63.89
58473;BME280;44775;51.564;5.460;2022-09-03T04:20:30;100829.91;;;13.07;63.97
58473;BME280;44775;51.564;5.460;2022-09-03T04:22:59;100821.19;;;13.05;64.08
58473;BME280;44775;51.564;5.460;2022-09-03T04:25:25;100821.03;;;13.06;64.20
58473;BME280;44775;51.564;5.460;2022-09-03T04:27:51;100821.84;;;13.07;64.27
58473;BME280;44775;51.564;5.460;2022-09-03T04:30:16;100822.84;;;13.06;64.45
58473;BME280;44775;51.564;5.460;2022-09-03T04:32:42;100826.56;;;13.05;64.14
58473;BME280;44775;51.564;5.460;2022-09-03T04:35:25;100822.28;;;12.95;64.20
58473;BME280;44775;51.564;5.460;2022-09-03T04:37:53;100822.50;;;12.94;64.52
58473;BME280;44775;51.564;5.460;2022-09-03T04:40:19;100822.03;;;12.90;64.82
58473;BME280;44775;51.564;5.460;2022-09-03T04:42:45;100823.69;;;12.91;64.79
58473;BME280;44775;51.564;5.460;2022-09-03T04:45:10;100815.28;;;12.94;64.61
58473;BME280;44775;51.564;5.460;2022-09-03T04:47:36;100826.38;;;12.91;64.90
58473;BME280;44775;51.564;5.460;2022-09-03T04:50:05;100823.53;;;12.93;64.71
58473;BME280;44775;51.564;5.460;2022-09-03T04:52:30;100824.97;;;12.95;63.90
58473;BME280;44775;51.564;5.460;2022-09-03T04:54:57;100830.34;;;12.95;64.75
58473;BME280;44775;51.564;5.460;2022-09-03T04:57:22;100833.38;;;12.92;64.81
58473;BME280;44775;51.564;5.460;2022-09-03T04:59:48;100830.91;;;12.91;64.88
58473;BME280;44775;51.564;5.460;2022-09-03T05:02:13;100828.88;;;12.93;64.91
58473;BME280;44775;51.564;5.460;2022-09-03T05:04:42;100829.72;;;12.93;64.97
58473;BME280;44775;51.564;5.460;2022-09-03T05:07:08;100825.19;;;12.94;64.78
58473;BME280;44775;51.564;5.460;2022-09-03T05:09:34;100829.81;;;13.00;65.07
58473;BME280;44775;51.564;5.460;2022-09-03T05:11:59;100827.97;;;13.00;64.78
58473;BME280;44775;51.564;5.460;2022-09-03T05:14:25;100828.97;;;12.99;65.06
58473;BME280;44775;51.564;5.460;2022-09-03T05:16:50;100828.59;;;13.03;64.87
58473;BME280;44775;51.564;5.460;2022-09-03T05:19:16;100833.94;;;13.03;64.73
58473;BME280;44775;51.564;5.460;2022-09-03T05:21:41;100833.78;;;13.04;64.64
58473;BME280;44775;51.564;5.460;2022-09-03T05:24:07;100823.50;;;13.08;64.92
58473;BME280;44775;51.564;5.460;2022-09-03T05:26:36;100828.50;;;13.11;64.65
58473;BME280;44775;51.564;5.460;2022-09-03T05:29:03;100829.16;;;13.13;64.77
58473;BME280;44775;51.564;5.460;2022-09-03T05:31:33;100825.09;;;13.17;64.73
58473;BME280;44775;51.564;5.460;2022-09-03T05:34:01;100826.88;;;13.25;64.38
58473;BME280;44775;51.564;5.460;2022-09-03T05:36:29;100821.94;;;13.28;64.64
58473;BME280;44775;51.564;5.460;2022-09-03T05:38:57;100827.78;;;13.32;64.26
58473;BME280;44775;51.564;5.460;2022-09-03T05:41:23;100834.06;;;13.39;63.88
58473;BME280;44775;51.564;5.460;2022-09-03T05:43:50;100832.19;;;13.39;64.03
58473;BME280;44775;51.564;5.460;2022-09-03T05:46:19;100827.50;;;13.41;64.21
58473;BME280;44775;51.564;5.460;2022-09-03T05:48:45;100828.16;;;13.43;64.35
58473;BME280;44775;51.564;5.460;2022-09-03T05:51:15;100825.09;;;13.46;64.46
58473;BME280;44775;51.564;5.460;2022-09-03T05:53:45;100832.19;;;13.54;63.99
58473;BME280;44775;51.564;5.460;2022-09-03T05:56:14;100832.91;;;13.63;63.66
58473;BME280;44775;51.564;5.460;2022-09-03T05:58:43;100836.31;;;13.72;63.62
58473;BME280;44775;51.564;5.460;2022-09-03T06:01:16;100832.28;;;13.82;63.39
58473;BME280;44775;51.564;5.460;2022-09-03T06:03:45;100830.78;;;13.94;63.04
58473;BME280;44775;51.564;5.460;2022-09-03T06:06:12;100826.53;;;14.07;62.79
58473;BME280;44775;51.564;5.460;2022-09-03T06:08:41;100831.50;;;14.25;62.42
58473;BME280;44775;51.564;5.460;2022-09-03T06:11:09;100826.84;;;14.40;61.99
58473;BME280;44775;51.564;5.460;2022-09-03T06:13:34;100832.81;;;14.57;61.68
58473;BME280;44775;51.564;5.460;2022-09-03T06:16:06;100838.72;;;14.74;61.24
58473;BME280;44775;51.564;5.460;2022-09-03T06:18:32;100835.53;;;14.92;60.77
58473;BME280;44775;51.564;5.460;2022-09-03T06:21:03;100822.34;;;15.03;60.29
58473;BME280;44775;51.564;5.460;2022-09-03T06:23:30;100840.50;;;15.23;60.14
58473;BME280;44775;51.564;5.460;2022-09-03T06:26:13;100838.72;;;15.43;59.89
58473;BME280;44775;51.564;5.460;2022-09-03T06:28:42;100834.63;;;15.54;58.61
58473;BME280;44775;51.564;5.460;2022-09-03T06:31:10;100836.78;;;15.78;58.61
58473;BME280;44775;51.564;5.460;2022-09-03T06:33:37;100839.13;;;15.95;58.16
58473;BME280;44775;51.564;5.460;2022-09-03T06:36:08;100838.50;;;16.06;57.58
58473;BME280;44775;51.564;5.460;2022-09-03T06:38:35;100840.63;;;16.24;56.68
58473;BME280;44775;51.564;5.460;2022-09-03T06:41:03;100840.22;;;16.40;55.56
58473;BME280;44775;51.564;5.460;2022-09-03T06:43:31;100838.53;;;16.59;55.02
58473;BME280;44775;51.564;5.460;2022-09-03T06:45:58;100843.09;;;16.72;54.88
58473;BME280;44775;51.564;5.460;2022-09-03T06:48:25;100836.47;;;16.88;54.40
58473;BME280;44775;51.564;5.460;2022-09-03T06:50:59;100841.16;;;17.26;53.63
58473;BME280;44775;51.564;5.460;2022-09-03T06:53:27;100845.16;;;17.61;52.01
58473;BME280;44775;51.564;5.460;2022-09-03T06:55:56;100845.25;;;17.93;51.45
58473;BME280;44775;51.564;5.460;2022-09-03T06:58:22;100844.34;;;18.06;50.70
58473;BME280;44775;51.564;5.460;2022-09-03T07:00:48;100848.59;;;18.20;50.44
58473;BME280;44775;51.564;5.460;2022-09-03T07:03:16;100850.41;;;18.33;50.11
58473;BME280;44775;51.564;5.460;2022-09-03T07:05:42;100852.00;;;18.40;49.56
58473;BME280;44775;51.564;5.460;2022-09-03T07:08:09;100848.41;;;18.47;49.44
58473;BME280;44775;51.564;5.460;2022-09-03T07:10:37;100852.56;;;18.74;49.51
58473;BME280;44775;51.564;5.460;2022-09-03T07:13:04;100850.72;;;18.93;48.47
58473;BME280;44775;51.564;5.460;2022-09-03T07:15:32;100850.44;;;19.20;48.01
58473;BME280;44775;51.564;5.460;2022-09-03T07:17:58;100838.78;;;19.38;47.28
58473;BME280;44775;51.564;5.460;2022-09-03T07:20:25;100842.91;;;19.58;46.97
58473;BME280;44775;51.564;5.460;2022-09-03T07:22:53;100848.28;;;19.95;46.59
58473;BME280;44775;51.564;5.460;2022-09-03T07:25:19;100846.19;;;20.21;45.62
58473;BME280;44775;51.564;5.460;2022-09-03T07:27:44;100850.03;;;20.43;45.21
58473;BME280;44775;51.564;5.460;2022-09-03T07:30:11;100845.72;;;20.89;44.47
58473;BME280;44775;51.564;5.460;2022-09-03T07:32:37;100848.25;;;21.43;42.80
58473;BME280;44775;51.564;5.460;2022-09-03T07:35:04;100851.97;;;21.65;42.61
58473;BME280;44775;51.564;5.460;2022-09-03T07:37:30;100849.84;;;22.25;41.47
58473;BME280;44775;51.564;5.460;2022-09-03T07:39:57;100857.59;;;22.50;40.34
58473;BME280;44775;51.564;5.460;2022-09-03T07:42:23;100866.41;;;22.74;39.65
58473;BME280;44775;51.564;5.460;2022-09-03T07:44:49;100863.34;;;23.04;39.30
58473;BME280;44775;51.564;5.460;2022-09-03T07:47:14;100864.00;;;23.11;38.84
58473;BME280;44775;51.564;5.460;2022-09-03T07:49:42;100862.97;;;22.95;39.04
58473;BME280;44775;51.564;5.460;2022-09-03T07:52:07;100859.06;;;22.91;39.08
58473;BME280;44775;51.564;5.460;2022-09-03T07:54:33;100861.44;;;23.04;38.96
58473;BME280;44775;51.564;5.460;2022-09-03T07:56:58;100865.31;;;23.25;38.28
58473;BME280;44775;51.564;5.460;2022-09-03T07:59:24;100866.81;;;23.38;38.20
58473;BME280;44775;51.564;5.460;2022-09-03T08:01:50;100862.19;;;23.83;37.57
58473;BME280;44775;51.564;5.460;2022-09-03T08:04:15;100858.94;;;23.86;37.32
58473;BME280;44775;51.564;5.460;2022-09-03T08:06:41;100861.03;;;24.33;36.18
58473;BME280;44775;51.564;5.460;2022-09-03T08:09:08;100862.78;;;24.76;35.98
58473;BME280;44775;51.564;5.460;2022-09-03T08:11:35;100867.09;;;25.09;35.90
58473;BME280;44775;51.564;5.460;2022-09-03T08:14:06;100864.03;;;25.01;35.71
58473;BME280;44775;51.564;5.460;2022-09-03T08:16:34;100864.78;;;25.28;34.79
58473;BME280;44775;51.564;5.460;2022-09-03T08:19:00;100861.84;;;25.50;34.25
58473;BME280;44775;51.564;5.460;2022-09-03T08:21:26;100878.44;;;25.28;34.33
58473;BME280;44775;51.564;5.460;2022-09-03T08:23:54;100873.88;;;25.49;33.58
58473;BME280;44775;51.564;5.460;2022-09-03T08:26:27;100872.94;;;25.91;33.48
58473;BME280;44775;51.564;5.460;2022-09-03T08:28:53;100881.22;;;26.27;33.34
58473;BME280;44775;51.564;5.460;2022-09-03T08:31:20;100880.41;;;26.47;32.61
58473;BME280;44775;51.564;5.460;2022-09-03T08:33:52;100880.69;;;26.40;33.29
58473;BME280;44775;51.564;5.460;2022-09-03T08:36:20;100887.31;;;26.59;32.88
58473;BME280;44775;51.564;5.460;2022-09-03T08:38:47;100878.75;;;26.46;31.92
58473;BME280;44775;51.564;5.460;2022-09-03T08:44:30;100884.50;;;27.21;31.78
58473;BME280;44775;51.564;5.460;2022-09-03T08:53:10;100904.16;;;27.43;32.28
58473;BME280;44775;51.564;5.460;2022-09-03T08:55:54;100894.47;;;27.66;31.25
58473;BME280;44775;51.564;5.460;2022-09-03T08:58:28;100893.13;;;27.53;31.53
58473;BME280;44775;51.564;5.460;2022-09-03T09:07:03;100889.72;;;27.02;31.99
58473;BME280;44775;51.564;5.460;2022-09-03T09:20:48;100884.09;;;29.10;29.04
58473;BME280;44775;51.564;5.460;2022-09-03T09:23:21;100888.19;;;29.13;29.20
58473;BME280;44775;51.564;5.460;2022-09-03T09:25:49;100888.03;;;28.70;29.13
58473;BME280;44775;51.564;5.460;2022-09-03T09:28:19;100886.34;;;28.74;29.37
58473;BME280;44775;51.564;5.460;2022-09-03T09:30:47;100880.47;;;28.86;28.59
58473;BME280;44775;51.564;5.460;2022-09-03T09:33:17;100878.53;;;28.86;28.96
58473;BME280;44775;51.564;5.460;2022-09-03T09:35:43;100884.88;;;28.82;29.07
58473;BME280;44775;51.564;5.460;2022-09-03T09:38:10;100881.00;;;29.17;28.80
58473;BME280;44775;51.564;5.460;2022-09-03T09:40:41;100881.66;;;29.95;28.12
58473;BME280;44775;51.564;5.460;2022-09-03T09:43:12;100874.53;;;29.94;27.45
58473;BME280;44775;51.564;5.460;2022-09-03T09:45:51;100878.91;;;29.95;26.94
58473;BME280;44775;51.564;5.460;2022-09-03T09:48:31;100873.75;;;30.45;27.72
58473;BME280;44775;51.564;5.460;2022-09-03T09:51:12;100885.00;;;30.95;26.76
58473;BME280;44775;51.564;5.460;2022-09-03T09:53:39;100882.75;;;30.83;25.91
58473;BME280;44775;51.564;5.460;2022-09-03T09:56:05;100886.31;;;30.51;26.06
58473;BME280;44775;51.564;5.460;2022-09-03T09:58:32;100880.94;;;30.92;25.72
58473;BME280;44775;51.564;5.460;2022-09-03T10:01:19;100883.38;;;30.94;26.62
58473;BME280;44775;51.564;5.460;2022-09-03T10:03:55;100884.06;;;31.46;26.49
58473;BME280;44775;51.564;5.460;2022-09-03T10:06:29;100891.41;;;31.23;26.21
58473;BME280;44775;51.564;5.460;2022-09-03T10:09:16;100880.59;;;30.47;26.69
58473;BME280;44775;51.564;5.460;2022-09-03T10:11:46;100883.72;;;31.06;25.96
58473;BME280;44775;51.564;5.460;2022-09-03T10:14:24;100881.03;;;30.54;26.84
58473;BME280;44775;51.564;5.460;2022-09-03T10:17:03;100882.38;;;30.24;27.42
58473;BME280;44775;51.564;5.460;2022-09-03T10:19:42;100882.50;;;30.66;26.58
58473;BME280;44775;51.564;5.460;2022-09-03T10:22:37;100871.94;;;30.21;26.91
58473;BME280;44775;51.564;5.460;2022-09-03T10:25:06;100864.47;;;30.22;27.32
58473;BME280;44775;51.564;5.460;2022-09-03T10:27:32;100866.97;;;30.70;26.32
58473;BME280;44775;51.564;5.460;2022-09-03T10:29:59;100872.06;;;30.95;26.02
58473;BME280;44775;51.564;5.460;2022-09-03T10:33:00;100869.31;;;31.23;25.86
58473;BME280;44775;51.564;5.460;2022-09-03T10:35:31;100872.06;;;30.95;25.32
58473;BME280;44775;51.564;5.460;2022-09-03T10:38:28;100867.03;;;30.84;26.15
58473;BME280;44775;51.564;5.460;2022-09-03T10:44:08;100866.97;;;30.70;26.30
58473;BME280;44775;51.564;5.460;2022-09-03T10:47:16;100866.81;;;30.94;26.35
58473;BME280;44775;51.564;5.460;2022-09-03T10:50:08;100869.19;;;31.14;25.78
58473;BME280;44775;51.564;5.460;2022-09-03T10:56:04;100869.38;;;31.73;25.41
58473;BME280;44775;51.564;5.460;2022-09-03T10:58:57;100868.97;;;31.24;25.93
58473;BME280;44775;51.564;5.460;2022-09-03T11:06:59;100863.28;;;31.48;25.26
58473;BME280;44775;51.564;5.460;2022-09-03T11:09:36;100869.41;;;31.45;24.77
58473;BME280;44775;51.564;5.460;2022-09-03T11:12:11;100871.63;;;31.71;24.70
58473;BME280;44775;51.564;5.460;2022-09-03T11:14:44;100864.78;;;30.86;25.56
58473;BME280;44775;51.564;5.460;2022-09-03T11:17:17;100876.03;;;31.31;24.82
58473;BME280;44775;51.564;5.460;2022-09-03T11:19:53;100865.63;;;32.05;24.61
58473;BME280;44775;51.564;5.460;2022-09-03T11:22:20;100863.28;;;32.57;23.86
58473;BME280;44775;51.564;5.460;2022-09-03T11:24:55;100861.44;;;32.53;24.31
58473;BME280;44775;51.564;5.460;2022-09-03T11:30:04;100855.25;;;32.87;23.95
58473;BME280;44775;51.564;5.460;2022-09-03T11:32:53;100862.53;;;32.74;23.77
58473;BME280;44775;51.564;5.460;2022-09-03T11:38:02;100853.81;;;32.58;23.96
58473;BME280;44775;51.564;5.460;2022-09-03T11:40:34;100851.56;;;32.60;24.23
58473;BME280;44775;51.564;5.460;2022-09-03T11:43:32;100843.25;;;33.31;23.64
58473;BME280;44775;51.564;5.460;2022-09-03T11:48:44;100841.84;;;33.51;22.90
58473;BME280;44775;51.564;5.460;2022-09-03T11:53:53;100845.44;;;33.95;22.92
58473;BME280;44775;51.564;5.460;2022-09-03T11:56:18;100848.22;;;33.60;22.49
58473;BME280;44775;51.564;5.460;2022-09-03T11:58:44;100848.06;;;33.83;22.37
58473;BME280;44775;51.564;5.460;2022-09-03T12:01:15;100853.28;;;33.93;22.26
58473;BME280;44775;51.564;5.460;2022-09-03T12:03:52;100854.91;;;33.77;22.47
58473;BME280;44775;51.564;5.460;2022-09-03T12:06:42;100848.91;;;34.18;22.17
58473;BME280;44775;51.564;5.460;2022-09-03T12:14:49;100857.09;;;35.26;20.78
58473;BME280;44775;51.564;5.460;2022-09-03T12:19:56;100848.91;;;34.91;21.31
58473;BME280;44775;51.564;5.460;2022-09-03T12:22:27;100847.28;;;35.29;20.98
58473;BME280;44775;51.564;5.460;2022-09-03T12:24:54;100854.81;;;35.79;20.14
58473;BME280;44775;51.564;5.460;2022-09-03T12:27:22;100850.78;;;35.17;21.04
58473;BME280;44775;51.564;5.460;2022-09-03T12:29:59;100850.00;;;35.08;20.95
58473;BME280;44775;51.564;5.460;2022-09-03T12:32:31;100848.53;;;34.63;20.73
58473;BME280;44775;51.564;5.460;2022-09-03T12:35:10;100845.56;;;35.07;20.95
58473;BME280;44775;51.564;5.460;2022-09-03T12:37:36;100850.69;;;35.34;20.61
58473;BME280;44775;51.564;5.460;2022-09-03T12:40:02;100840.88;;;34.90;20.62
58473;BME280;44775;51.564;5.460;2022-09-03T12:42:30;100840.97;;;34.72;20.55
58473;BME280;44775;51.564;5.460;2022-09-03T12:45:06;100839.88;;;35.03;20.56
58473;BME280;44775;51.564;5.460;2022-09-03T12:47:37;100845.41;;;35.12;20.34
58473;BME280;44775;51.564;5.460;2022-09-03T12:50:10;100840.06;;;35.57;20.39
58473;BME280;44775;51.564;5.460;2022-09-03T12:52:58;100839.34;;;35.69;20.00
58473;BME280;44775;51.564;5.460;2022-09-03T12:55:44;100842.13;;;36.11;19.94
58473;BME280;44775;51.564;5.460;2022-09-03T12:58:30;100839.31;;;36.44;19.39
58473;BME280;44775;51.564;5.460;2022-09-03T13:01:18;100843.53;;;36.17;19.96
58473;BME280;44775;51.564;5.460;2022-09-03T13:04:08;100843.56;;;36.50;19.77
58473;BME280;44775;51.564;5.460;2022-09-03T13:06:48;100843.59;;;36.62;19.80
58473;BME280;44775;51.564;5.460;2022-09-03T13:09:22;100842.44;;;36.76;18.79
58473;BME280;44775;51.564;5.460;2022-09-03T13:11:50;100835.25;;;36.29;18.80
58473;BME280;44775;51.564;5.460;2022-09-03T13:14:17;100837.41;;;36.24;18.24
58473;BME280;44775;51.564;5.460;2022-09-03T13:30:10;100822.81;;;37.58;18.43
58473;BME280;44775;51.564;5.460;2022-09-03T13:32:49;100820.88;;;36.73;19.01
58473;BME280;44775;51.564;5.460;2022-09-03T13:35:36;100813.53;;;36.68;19.14
58473;BME280;44775;51.564;5.460;2022-09-03T13:38:57;100822.00;;;36.59;19.71
58473;BME280;44775;51.564;5.460;2022-09-03T13:52:15;100820.56;;;35.87;19.20
58473;BME280;44775;51.564;5.460;2022-09-03T13:54:53;100820.28;;;36.22;18.50
58473;BME280;44775;51.564;5.460;2022-09-03T13:57:48;100815.28;;;36.27;19.01
58473;BME280;44775;51.564;5.460;2022-09-03T14:00:32;100823.88;;;36.22;18.70
58473;BME280;44775;51.564;5.460;2022-09-03T14:03:24;100818.13;;;36.06;18.66
58473;BME280;44775;51.564;5.460;2022-09-03T14:06:10;100810.81;;;36.47;18.69
58473;BME280;44775;51.564;5.460;2022-09-03T14:17:42;100819.84;;;37.14;18.39
58473;BME280;44775;51.564;5.460;2022-09-03T14:20:28;100818.47;;;37.20;18.49
58473;BME280;44775;51.564;5.460;2022-09-03T14:23:09;100823.97;;;36.71;18.17
58473;BME280;44775;51.564;5.460;2022-09-03T14:25:56;100827.41;;;36.10;19.30
58473;BME280;44775;51.564;5.460;2022-09-03T14:31:09;100835.94;;;35.84;19.20
58473;BME280;44775;51.564;5.460;2022-09-03T14:50:37;100816.72;;;35.49;20.00
58473;BME280;44775;51.564;5.460;2022-09-03T15:01:35;100808.69;;;34.97;20.37
58473;BME280;44775;51.564;5.460;2022-09-03T15:09:39;100812.59;;;34.96;20.27
58473;BME280;44775;51.564;5.460;2022-09-03T15:12:16;100803.59;;;34.70;20.16
58473;BME280;44775;51.564;5.460;2022-09-03T15:23:31;100805.94;;;34.89;20.81
58473;BME280;44775;51.564;5.460;2022-09-03T15:26:20;100803.66;;;34.35;20.83
58473;BME280;44775;51.564;5.460;2022-09-03T15:29:20;100803.06;;;34.21;21.66
58473;BME280;44775;51.564;5.460;2022-09-03T15:36:56;100815.13;;;34.25;21.68
58473;BME280;44775;51.564;5.460;2022-09-03T15:39:29;100815.91;;;34.43;21.45
58473;BME280;44775;51.564;5.460;2022-09-03T15:42:05;100815.59;;;34.91;21.38
58473;BME280;44775;51.564;5.460;2022-09-03T15:44:41;100806.63;;;34.30;21.46
58473;BME280;44775;51.564;5.460;2022-09-03T15:49:59;100798.81;;;33.71;22.06
58473;BME280;44775;51.564;5.460;2022-09-03T15:52:57;100806.00;;;33.72;22.25
58473;BME280;44775;51.564;5.460;2022-09-03T15:55:36;100811.56;;;33.06;23.21
58473;BME280;44775;51.564;5.460;2022-09-03T16:00:53;100808.28;;;32.64;23.71
58473;BME280;44775;51.564;5.460;2022-09-03T16:08:58;100810.53;;;32.54;23.66
58473;BME280;44775;51.564;5.460;2022-09-03T16:11:40;100810.16;;;32.78;23.88
58473;BME280;44775;51.564;5.460;2022-09-03T16:14:22;100808.13;;;32.61;23.74
58473;BME280;44775;51.564;5.460;2022-09-03T16:16:58;100806.44;;;32.51;23.90
58473;BME280;44775;51.564;5.460;2022-09-03T16:22:46;100810.75;;;31.76;24.74
58473;BME280;44775;51.564;5.460;2022-09-03T16:25:19;100818.50;;;31.10;25.25
58473;BME280;44775;51.564;5.460;2022-09-03T16:28:05;100812.38;;;30.53;26.50
58473;BME280;44775;51.564;5.460;2022-09-03T16:33:30;100801.59;;;29.48;28.24
58473;BME280;44775;51.564;5.460;2022-09-03T16:39:04;100808.72;;;28.82;29.30
58473;BME280;44775;51.564;5.460;2022-09-03T16:41:50;100811.63;;;28.67;29.94
58473;BME280;44775;51.564;5.460;2022-09-03T16:47:10;100813.03;;;28.30;30.50
58473;BME280;44775;51.564;5.460;2022-09-03T16:53:03;100818.53;;;27.96;31.67
58473;BME280;44775;51.564;5.460;2022-09-03T16:56:23;100822.50;;;27.74;32.12